Time;durP1;ratioP1;P1;durP2;ratioP2;P2;SDS_P1;SDS_P2;PMS_P1;PMS_P2;Temp;Humidity;BMP_temperature;BMP_pressure;BME280_temperature;BME280_humidity;BME280_pressure;Samples;Min_cycle;Max_cycle;Signal;HPM_P1;HPM_P2
2022/08/11 00:01:25;;;;;;;5.13;3.47;;;19.20;99.90;;;-141.84;44.04;21234.72;5010384;28;20230;-70
2022/08/11 00:03:57;;;;;;;3.97;3.17;;;19.20;99.90;;;-141.84;44.22;21218.44;5010165;28;20253;-71
2022/08/11 00:06:30;;;;;;;3.65;3.35;;;19.10;99.90;;;-141.84;43.59;21263.19;5010461;28;20395;-69
2022/08/11 00:09:00;;;;;;;3.47;3.17;;;19.20;99.90;;;-141.84;43.63;21250.97;5010683;28;20424;-71
2022/08/11 00:11:39;;;;;;;3.40;3.10;;;19.20;99.90;;;-141.84;43.78;21222.53;5010091;28;20233;-69
2022/08/11 00:14:17;;;;;;;3.63;3.33;;;19.20;99.90;;;-141.84;43.80;21240.81;5010079;28;20253;-70
2022/08/11 00:16:56;;;;;;;4.13;3.30;;;19.20;99.90;;;-141.84;44.16;21218.44;5010172;28;20240;-73
2022/08/11 00:19:29;;;;;;;5.10;3.40;;;19.10;99.90;;;-141.84;44.15;21218.44;5009742;28;20249;-70
2022/08/11 00:22:22;;;;;;;6.20;3.60;;;19.00;99.90;;;-141.84;44.16;21234.72;5010269;28;20230;-70
2022/08/11 00:24:51;;;;;;;5.28;3.70;;;19.10;99.90;;;-141.84;44.07;21198.13;5009992;28;20311;-69
2022/08/11 00:27:35;;;;;;;5.13;3.40;;;19.10;99.90;;;-141.84;44.27;21216.41;5010648;28;20679;-71
2022/08/11 00:30:05;;;;;;;4.57;3.00;;;19.10;99.90;;;-141.84;44.07;21212.34;4990498;28;20204;-71
2022/08/11 00:32:35;;;;;;;3.58;3.28;;;19.00;99.90;;;-141.84;44.30;21236.75;4990322;28;20227;-73
2022/08/11 00:35:07;;;;;;;4.07;3.40;;;19.00;99.90;;;-141.84;44.50;21194.06;4990168;28;20231;-72
2022/08/11 00:37:57;;;;;;;3.90;3.25;;;19.00;99.90;;;-141.84;44.65;21179.81;4991386;28;20729;-71
2022/08/11 00:40:37;;;;;;;3.72;3.42;;;19.00;99.90;;;-141.84;44.64;21200.16;4994337;28;20579;-70
2022/08/11 00:43:23;;;;;;;3.95;3.53;;;19.00;99.90;;;-141.84;44.87;21190.00;4993835;28;20665;-70
2022/08/11 00:46:21;;;;;;;3.70;3.40;;;18.90;99.90;;;-141.84;44.81;21183.88;4994210;28;20223;-60
2022/08/11 00:49:10;;;;;;;4.82;3.60;;;18.90;99.90;;;-141.84;44.93;21173.72;4993938;28;20220;-61
2022/08/11 00:52:00;;;;;;;4.93;3.63;;;18.90;99.90;;;-141.84;45.05;21155.44;4993996;28;20204;-72
2022/08/11 00:55:07;;;;;;;3.92;3.53;;;18.80;99.90;;;-141.84;45.55;21141.19;4993600;28;20195;-72
2022/08/11 00:58:28;;;;;;;3.70;3.35;;;18.80;99.90;;;-141.84;45.45;21137.13;4980904;28;20203;-72
2022/08/11 01:01:10;;;;;;;3.55;3.25;;;18.70;99.90;;;-141.84;45.35;21137.13;4993434;28;20254;-71
2022/08/11 01:04:27;;;;;;;4.25;3.70;;;18.70;99.90;;;-141.84;45.57;21155.44;4993280;28;20795;-70
2022/08/11 01:07:55;;;;;;;4.22;3.42;;;18.70;99.90;;;-141.84;45.70;21139.16;4993442;28;20231;-71
2022/08/11 01:11:19;;;;;;;3.83;3.45;;;18.60;99.90;;;-141.84;45.79;21102.56;4992991;28;20223;-71
2022/08/11 01:14:34;;;;;;;6.35;3.80;;;18.60;99.90;;;-141.84;46.12;21106.63;4960823;28;20230;-71
2022/08/11 01:18:00;;;;;;;4.00;3.70;;;18.50;99.90;;;-141.84;46.42;21082.25;4993301;28;20298;-71
2022/08/11 01:21:38;;;;;;;3.90;3.60;;;18.50;99.90;;;-141.84;46.20;21078.16;4992812;28;20262;-71
2022/08/11 01:25:06;;;;;;;5.63;3.97;;;18.40;99.90;;;-141.84;46.33;21088.34;4952133;29;20311;-72
2022/08/11 01:28:28;;;;;;;4.70;3.70;;;18.40;99.90;;;-141.84;46.50;21092.41;4919680;28;20296;-71
2022/08/11 01:31:59;;;;;;;4.75;3.80;;;18.30;99.90;;;-141.84;46.81;21057.84;5012846;28;20309;-71
2022/08/11 01:35:31;;;;;;;4.30;4.00;;;18.30;99.90;;;-141.84;46.65;21033.44;4997699;28;20710;-71
2022/08/11 01:38:55;;;;;;;4.68;4.25;;;18.30;99.90;;;-141.84;46.65;21049.72;5012682;28;20682;-71
2022/08/11 01:45:10;;;;;;;4.57;4.00;;;18.30;99.90;;;-141.84;47.23;21065.97;5012410;28;20231;-71
2022/08/11 01:47:50;;;;;;;5.75;4.00;;;18.20;99.90;;;-141.84;47.44;21027.34;5012136;28;20230;-71
2022/08/11 01:50:48;;;;;;;4.40;4.00;;;18.20;99.90;;;-141.84;47.81;21007.00;5017687;28;20669;-72
2022/08/11 01:53:30;;;;;;;5.07;4.30;;;18.10;99.90;;;-141.84;47.59;21037.50;5032073;28;20226;-71
2022/08/11 01:56:22;;;;;;;4.88;4.38;;;18.10;99.90;;;-141.84;47.71;21027.34;5030903;28;20237;-70
2022/08/11 01:59:03;;;;;;;5.22;4.72;;;18.00;99.90;;;-141.84;47.77;21057.84;5031644;28;20252;-71
2022/08/11 02:01:52;;;;;;;5.18;4.32;;;18.00;99.90;;;-141.84;47.62;21015.16;5031579;28;20709;-71
2022/08/11 02:04:33;;;;;;;4.70;4.30;;;18.00;99.90;;;-141.84;47.59;21009.03;5031487;28;20308;-70
2022/08/11 02:07:17;;;;;;;7.63;5.10;;;18.00;99.90;;;-141.84;47.86;21031.41;5031514;28;20226;-71
2022/08/11 02:13:16;;;;;;;5.15;4.50;;;17.90;99.90;;;-141.84;48.53;20933.81;5031857;28;20218;-71
2022/08/11 02:16:17;;;;;;;5.82;4.38;;;17.80;99.90;;;-141.84;48.50;20974.50;5031488;28;20226;-70
2022/08/11 02:24:49;;;;;;;5.30;4.80;;;17.80;99.90;;;-141.84;48.96;20966.34;5031250;28;20413;-71
2022/08/11 02:27:26;;;;;;;5.38;4.82;;;17.70;99.90;;;-141.84;49.37;20923.66;5032225;28;20182;-71
2022/08/11 02:30:06;;;;;;;5.30;4.80;;;17.70;99.90;;;-141.84;49.48;20964.31;5031749;28;20209;-71
2022/08/11 02:36:08;;;;;;;5.20;4.70;;;17.60;99.90;;;-141.84;49.27;20937.91;4970010;28;20664;-71
2022/08/11 02:38:54;;;;;;;5.53;5.03;;;17.60;99.90;;;-141.84;49.83;20941.97;4970013;28;20232;-72
2022/08/11 02:44:47;;;;;;;5.68;5.10;;;17.60;99.90;;;-141.84;49.98;20946.03;5031075;28;20724;-71
2022/08/11 02:47:39;;;;;;;6.20;5.32;;;17.50;99.90;;;-141.84;50.28;20915.53;5031158;28;20225;-71
2022/08/11 02:50:21;;;;;;;6.22;5.63;;;17.50;99.90;;;-141.84;50.11;20913.50;5030731;28;20233;-70
2022/08/11 02:53:01;;;;;;;6.75;5.20;;;17.50;99.90;;;-141.84;50.19;20880.97;5031079;28;20226;-71
2022/08/11 02:55:47;;;;;;;6.15;5.40;;;17.50;99.90;;;-141.84;50.52;20919.59;5030775;28;20235;-72
2022/08/11 02:58:38;;;;;;;7.22;5.40;;;17.40;99.90;;;-141.84;50.82;20901.31;5031339;28;20853;-71
2022/08/11 03:01:23;;;;;;;5.82;5.20;;;17.40;99.90;;;-141.84;50.54;20927.72;5030088;28;20304;-71
2022/08/11 03:04:03;;;;;;;5.78;5.25;;;17.40;99.90;;;-141.84;50.52;20919.59;5030755;28;20225;-71
2022/08/11 03:06:44;;;;;;;6.95;5.20;;;17.40;99.90;;;-141.84;51.02;20913.50;5030591;28;20232;-70
2022/08/11 03:09:25;;;;;;;6.50;5.15;;;17.40;99.90;;;-141.84;51.60;20868.78;5030624;28;20206;-71
2022/08/11 03:18:06;;;;;;;6.07;5.57;;;17.30;99.90;;;-141.84;51.99;20854.53;5030217;28;20318;-71
2022/08/11 03:20:46;;;;;;;5.80;5.30;;;17.20;99.90;;;-141.84;52.02;20848.44;5030935;28;20265;-70
2022/08/11 03:23:27;;;;;;;5.63;5.18;;;17.20;99.90;;;-141.84;52.09;20842.34;5030432;28;20606;-71
2022/08/11 03:26:05;;;;;;;6.38;5.70;;;17.20;99.90;;;-141.84;52.09;20874.88;5030580;28;20237;-70
2022/08/11 03:28:45;;;;;;;8.15;5.60;;;17.10;99.90;;;-141.84;51.80;20852.50;5030351;28;20228;-70
2022/08/11 03:31:25;;;;;;;5.50;5.00;;;17.10;99.90;;;-141.84;52.32;20860.66;5030673;28;20228;-71
2022/08/11 03:34:02;;;;;;;6.38;5.70;;;17.10;99.90;;;-141.84;52.66;20815.91;5030179;28;20231;-71
2022/08/11 03:37:47;;;;;;;7.05;5.80;;;17.10;99.90;;;-141.84;52.42;20862.69;5030375;28;20186;-71
2022/08/11 03:41:41;;;;;;;6.57;5.80;;;17.00;99.90;;;-141.84;52.92;20815.91;5030272;28;20249;-71
2022/08/11 03:43:34;;;;;;;5.65;5.10;;;17.00;99.90;;;-141.84;53.27;20828.13;5030060;28;20631;-71
2022/08/11 03:46:14;;;;;;;6.30;5.60;;;17.00;99.90;;;-141.84;53.37;20811.84;5030377;28;20309;-72
2022/08/11 03:49:01;;;;;;;9.40;5.82;;;16.90;99.90;;;-141.84;53.25;20840.31;5030139;28;20214;-71
2022/08/11 03:51:45;;;;;;;6.30;5.70;;;16.90;99.90;;;-141.84;53.46;20801.69;5029891;28;20210;-71
2022/08/11 03:54:38;;;;;;;7.93;5.78;;;16.90;99.90;;;-141.84;53.66;20785.44;5030443;28;20186;-71
2022/08/11 03:57:59;;;;;;;6.60;5.85;;;16.90;99.90;;;-141.84;52.89;20838.28;5029856;28;20224;-71
2022/08/11 04:01:01;;;;;;;5.97;5.35;;;17.00;99.90;;;-141.84;53.22;20838.28;5029907;28;20230;-70
2022/08/11 04:04:18;;;;;;;6.72;5.82;;;17.00;99.90;;;-141.84;52.98;20862.69;5030110;28;20277;-72
2022/08/11 04:07:44;;;;;;;6.28;5.60;;;17.00;99.90;;;-141.84;52.56;20897.25;5029944;28;20230;-71
2022/08/11 04:10:59;;;;;;;6.90;6.18;;;17.10;99.90;;;-141.84;52.50;20872.84;5025150;28;20697;-72
2022/08/11 04:17:52;;;;;;;5.97;5.38;;;17.10;99.90;;;-141.84;53.44;20850.47;5034179;28;20226;-71
2022/08/11 04:20:53;;;;;;;9.50;5.97;;;17.10;99.90;;;-141.84;52.89;20840.31;5033423;28;20320;-71
2022/08/11 04:24:03;;;;;;;6.55;5.78;;;17.10;99.90;;;-141.84;52.35;20864.72;5026414;28;20236;-70
2022/08/11 04:27:42;;;;;;;6.57;5.80;;;17.10;99.90;;;-141.84;52.63;20860.66;5033934;28;20210;-72
2022/08/11 04:30:17;;;;;;;6.30;5.70;;;17.20;99.90;;;-141.84;52.77;20844.38;5033303;28;20222;-71
2022/08/11 04:33:33;;;;;;;6.07;5.57;;;17.20;99.90;;;-141.84;52.61;20854.53;5033248;28;20253;-71
2022/08/11 04:39:50;;;;;;;6.07;5.15;;;17.30;99.90;;;-141.84;52.82;20846.41;5033384;28;20222;-71
2022/08/11 04:43:21;;;;;;;6.88;5.43;;;17.30;99.90;;;-141.84;52.47;20895.19;5034012;28;20202;-71
2022/08/11 04:46:21;;;;;;;5.60;5.15;;;17.30;99.90;;;-141.84;52.58;20832.19;5029335;28;20318;-71
2022/08/11 05:02:52;;;;;;;5.95;5.43;;;17.80;99.90;;;-141.84;51.49;21009.03;5034191;28;20225;-71
2022/08/11 05:05:35;;;;;;;6.57;5.00;;;18.00;99.90;;;-141.84;51.00;21029.38;5033873;28;20234;-72
2022/08/11 05:08:53;;;;;;;6.20;5.70;;;18.20;99.90;;;-141.84;48.91;21161.53;5034085;28;20736;-72
2022/08/11 05:12:18;;;;;;;6.10;5.45;;;18.60;99.90;;;-141.84;47.16;21350.59;5033657;28;20309;-70
2022/08/11 05:35:43;;;;;;;8.15;6.28;;;20.90;99.90;;;-141.84;44.76;21533.59;5032993;28;20780;-70
2022/08/11 05:58:35;;;;;;;6.15;5.38;;;21.50;99.90;;;-141.84;42.94;21669.81;5032773;28;20230;-71
2022/08/11 06:01:13;;;;;;;8.00;5.90;;;21.70;99.90;;;-141.84;42.74;21724.72;5032920;28;20659;-72
2022/08/11 06:06:59;;;;;;;9.13;6.07;;;21.80;99.90;;;-141.84;42.49;21749.13;4971600;28;20292;-70
2022/08/11 06:09:32;;;;;;;8.57;6.65;;;21.90;99.90;;;-141.84;42.24;21765.38;5025093;28;20325;-70
2022/08/11 06:12:07;;;;;;;17.02;6.63;;;22.00;99.90;;;-141.84;42.54;21749.13;5033213;28;20216;-69
2022/08/11 06:14:43;;;;;;;11.45;6.20;;;22.10;99.90;;;-141.84;42.39;21775.56;5032717;28;20324;-70
2022/08/11 06:17:13;;;;;;;10.85;6.20;;;22.20;99.90;;;-141.84;41.84;21789.78;5033134;28;20776;-69
2022/08/11 06:19:48;;;;;;;11.32;5.95;;;22.20;99.90;;;-141.84;42.12;21806.06;5032348;28;20244;-72
2022/08/11 06:22:22;;;;;;;13.32;6.00;;;22.20;99.90;;;-141.84;42.33;21814.19;5032422;28;20227;-70
2022/08/11 06:24:58;;;;;;;8.77;5.88;;;22.30;99.90;;;-141.84;42.31;21789.78;5032501;28;20355;-71
2022/08/11 06:27:31;;;;;;;8.88;6.00;;;22.40;99.90;;;-141.84;42.48;21863.00;5032422;28;20633;-71
2022/08/11 06:30:01;;;;;;;18.13;6.88;;;22.50;99.90;;;-141.84;41.89;21891.47;5032853;28;20261;-72
2022/08/11 06:32:35;;;;;;;12.82;6.90;;;22.60;99.90;;;-141.84;41.77;21863.00;5032226;28;20222;-71
2022/08/11 06:35:17;;;;;;;16.60;6.47;;;22.70;99.90;;;-141.84;41.46;21875.19;5031998;28;20253;-71
2022/08/11 06:38:07;;;;;;;6.55;5.38;;;22.70;99.90;;;-141.84;41.79;21911.78;5032346;28;20320;-72
2022/08/11 06:41:29;;;;;;;9.70;5.60;;;22.70;99.90;;;-141.84;41.60;21891.47;5030647;28;20268;-72
2022/08/11 06:43:51;;;;;;;6.38;5.30;;;22.80;99.90;;;-141.84;41.51;21917.91;5031604;28;20284;-72
2022/08/11 06:46:30;;;;;;;6.68;5.55;;;22.80;99.90;;;-141.84;41.63;21911.78;5031882;28;20221;-72
2022/08/11 06:49:02;;;;;;;10.77;6.22;;;22.90;99.90;;;-141.84;41.31;21956.53;5031859;28;20782;-71
2022/08/11 06:51:33;;;;;;;6.40;5.75;;;23.00;99.90;;;-141.84;41.20;21936.19;5032019;28;20206;-70
2022/08/11 06:54:02;;;;;;;7.18;5.70;;;23.00;99.90;;;-141.84;41.05;21938.22;5032265;28;20192;-72
2022/08/11 07:02:37;;;;;;;11.50;6.28;;;23.00;99.90;;;-141.84;40.84;21972.81;5030382;28;20317;-72
2022/08/11 07:05:16;;;;;;;8.30;5.30;;;23.00;99.90;;;-141.84;40.77;21997.19;5030590;28;20225;-72
2022/08/11 07:17:48;;;;;;;5.97;4.82;;;23.10;99.90;;;-141.84;41.25;21974.84;5030603;28;20230;-72
2022/08/11 07:28:57;;;;;;;6.32;4.97;;;23.20;99.90;;;-141.84;40.68;22001.28;5030602;28;20230;-72
2022/08/11 07:31:35;;;;;;;6.25;4.63;;;23.20;99.90;;;-141.84;40.64;22017.53;5030362;28;20221;-71
2022/08/11 07:34:19;;;;;;;7.30;4.50;;;23.30;99.90;;;-141.84;40.31;22029.75;5030327;28;20226;-70
2022/08/11 07:36:53;;;;;;;7.65;4.65;;;23.30;99.90;;;-141.84;40.00;22048.03;5030428;28;20596;-71
2022/08/11 07:39:25;;;;;;;5.05;4.60;;;23.30;99.90;;;-141.84;39.94;22111.09;5031074;28;20282;-72
2022/08/11 07:41:57;;;;;;;5.35;4.85;;;23.50;99.90;;;-141.84;39.49;22090.75;5030310;28;20264;-72
2022/08/11 07:44:28;;;;;;;4.93;4.50;;;23.50;99.90;;;-141.84;39.33;22068.38;5030302;28;20727;-71
2022/08/11 07:52:40;;;;;;;5.78;4.20;;;23.60;99.90;;;-141.84;39.77;22131.41;5030138;28;20248;-72
2022/08/11 07:55:15;;;;;;;4.47;4.07;;;23.60;99.90;;;-141.84;39.18;22145.66;5030388;28;20230;-71
2022/08/11 08:17:58;;;;;;;4.13;3.72;;;24.00;99.90;;;-141.84;37.61;22273.78;5030326;28;20206;-72
2022/08/11 08:20:49;;;;;;;4.82;3.88;;;24.10;99.90;;;-141.84;37.62;22257.50;5029907;28;20222;-72
2022/08/11 08:23:31;;;;;;;4.28;3.88;;;24.20;99.90;;;-141.84;37.65;22328.69;5030352;28;20236;-71
2022/08/11 08:26:57;;;;;;;4.95;3.50;;;24.30;99.90;;;-141.84;37.27;22351.03;5029988;28;20739;-71
2022/08/11 08:30:46;;;;;;;4.97;3.90;;;24.40;99.90;;;-141.84;37.43;22361.22;5029886;28;20735;-71
2022/08/11 08:31:47;;;;;;;5.55;3.78;;;24.50;99.90;;;-141.84;37.46;22369.34;5029965;28;20240;-72
2022/08/11 08:34:16;;;;;;;4.93;3.90;;;24.60;99.90;;;-141.84;36.59;22369.34;5030110;28;20238;-71
2022/08/11 08:36:47;;;;;;;6.72;3.97;;;24.60;99.90;;;-141.84;36.58;22420.19;5029964;28;20202;-71
2022/08/11 08:39:20;;;;;;;6.80;3.75;;;24.70;99.90;;;-141.84;36.46;22410.03;5030819;28;20274;-71
2022/08/11 08:41:55;;;;;;;4.57;3.50;;;24.70;99.90;;;-141.84;36.01;22416.13;5029577;28;20272;-70
2022/08/11 08:44:25;;;;;;;4.07;3.40;;;24.80;99.90;;;-141.84;35.77;22483.25;5030138;28;20236;-72
2022/08/11 08:47:17;;;;;;;4.68;3.60;;;24.90;99.90;;;-141.84;35.56;22499.50;5030048;28;20245;-70
2022/08/11 08:50:12;;;;;;;3.60;3.30;;;25.00;99.90;;;-141.84;35.27;22519.84;5029573;28;20234;-71
2022/08/11 08:52:54;;;;;;;3.63;3.28;;;25.10;99.90;;;-141.84;35.25;22505.59;5030027;28;20489;-72
2022/08/11 08:55:23;;;;;;;4.13;3.10;;;25.10;99.90;;;-141.84;35.24;22509.69;5029922;28;20221;-73
2022/08/11 08:57:59;;;;;;;4.30;3.28;;;25.20;99.90;;;-141.84;35.03;22550.34;5029984;28;20229;-72
2022/08/11 09:00:40;;;;;;;3.60;3.28;;;25.30;99.90;;;-141.84;35.02;22599.16;5032145;28;20288;-70
2022/08/11 09:03:09;;;;;;;4.65;3.40;;;25.40;99.90;;;-141.84;34.93;22570.69;5033784;28;20575;-71
2022/08/11 09:05:58;;;;;;;5.93;2.88;;;25.40;99.90;;;-141.84;34.10;22603.22;5033628;28;20217;-71
2022/08/11 09:08:28;;;;;;;3.97;3.00;;;25.50;99.90;;;-141.84;33.32;22676.44;5033086;28;20230;-72
2022/08/11 09:13:47;;;;;;;2.90;2.70;;;25.70;99.90;;;-141.84;33.38;22696.78;5034310;28;20241;-72
2022/08/11 09:16:34;;;;;;;4.07;3.10;;;25.70;99.90;;;-141.84;33.13;22696.78;5034528;28;20222;-70
2022/08/11 09:19:04;;;;;;;4.05;3.00;;;25.80;99.90;;;-141.84;33.14;22713.06;5034514;28;20225;-71
2022/08/11 09:21:32;;;;;;;3.63;3.33;;;25.80;99.90;;;-141.84;33.59;22696.78;5033157;28;20182;-71
2022/08/11 09:27:07;;;;;;;4.82;3.60;;;25.80;99.90;;;-141.84;33.57;22749.66;5032812;28;20218;-70
2022/08/11 09:29:38;;;;;;;3.40;3.10;;;25.90;99.90;;;-141.84;33.54;22772.03;5032457;28;20258;-71
2022/08/11 09:32:07;;;;;;;4.65;3.28;;;26.00;99.90;;;-141.84;32.85;22839.16;5032747;28;20305;-71
2022/08/11 09:34:38;;;;;;;3.03;2.72;;;26.20;99.90;;;-141.84;32.39;22835.09;5032297;28;20230;-71
2022/08/11 09:40:32;;;;;;;3.10;2.88;;;26.30;99.90;;;-141.84;32.52;22845.25;5032585;28;20218;-71
2022/08/11 09:45:57;;;;;;;3.80;3.03;;;26.20;99.30;;;-141.84;32.20;22831.03;5033185;28;20225;-71
2022/08/11 09:48:28;;;;;;;4.72;3.17;;;26.20;99.40;;;-141.84;31.83;22879.84;5032542;28;20188;-70
2022/08/11 09:51:00;;;;;;;5.72;3.10;;;26.20;99.20;;;-141.84;31.88;22826.97;5033160;28;20217;-72
2022/08/11 09:53:35;;;;;;;10.95;3.83;;;26.30;99.10;;;-141.84;32.01;22847.28;5032755;28;20229;-71
2022/08/11 09:59:03;;;;;;;3.50;3.20;;;26.40;99.10;;;-141.84;31.76;22928.66;5032082;28;20249;-72
2022/08/11 10:01:41;;;;;;;3.10;2.80;;;26.50;99.00;;;-141.84;31.78;22985.59;5032252;28;20218;-61
2022/08/11 10:04:17;;;;;;;3.55;3.17;;;26.60;99.00;;;-141.84;31.57;23016.13;5031926;28;20218;-61
2022/08/11 10:07:04;;;;;;;3.50;3.20;;;26.80;99.00;;;-141.84;31.61;23079.19;5032026;28;20233;-61
2022/08/11 10:09:43;;;;;;;4.05;3.75;;;27.00;98.90;;;-141.84;31.55;23162.56;5031446;28;20187;-61
2022/08/11 10:12:19;;;;;;;4.72;3.03;;;27.20;98.80;;;-141.84;31.17;23184.94;5031810;28;20206;-60
2022/08/11 10:20:36;;;;;;;4.22;2.92;;;27.50;98.00;;;-141.84;30.89;23217.50;5030717;28;20225;-62
2022/08/11 10:28:44;;;;;;;4.10;2.80;;;27.40;97.20;;;-141.84;30.65;23152.41;5031287;28;20237;-62
2022/08/11 10:34:51;;;;;;;5.10;3.10;;;27.40;97.20;;;-141.84;30.86;23087.31;5030903;28;20218;-61
2022/08/11 10:37:26;;;;;;;3.80;2.97;;;27.20;97.10;;;-141.84;31.05;23071.03;5031160;28;20226;-61
2022/08/11 10:40:17;;;;;;;4.53;3.42;;;27.00;97.30;;;-141.84;31.22;23099.50;5030821;28;20313;-62
2022/08/11 10:43:04;;;;;;;9.07;3.70;;;27.10;97.40;;;-141.84;31.23;23071.03;5030982;28;20259;-62
2022/08/11 10:48:24;;;;;;;6.13;3.15;;;27.10;97.60;;;-141.84;31.49;23066.97;5031465;28;20281;-63
2022/08/11 10:59:42;;;;;;;3.38;3.10;;;27.20;97.40;;;-141.84;31.18;23107.66;4969203;28;20236;-62
2022/08/11 11:02:14;;;;;;;5.03;3.17;;;27.20;97.30;;;-141.84;31.16;23099.50;4969298;28;20224;-62
2022/08/11 11:05:02;;;;;;;3.33;2.97;;;27.20;97.30;;;-141.84;31.31;23119.84;4996118;28;20728;-61
2022/08/11 11:07:47;;;;;;;4.38;3.08;;;27.10;97.40;;;-141.84;31.18;23174.78;5030752;28;20226;-63
2022/08/11 11:10:16;;;;;;;4.45;3.22;;;27.20;97.40;;;-141.84;31.13;23248.00;5030403;28;20249;-61
2022/08/11 11:18:37;;;;;;;3.03;2.67;;;27.50;95.80;;;-141.84;29.41;23264.28;5030289;28;20186;-61
2022/08/11 11:21:08;;;;;;;3.45;3.13;;;27.50;94.70;;;-141.84;29.43;23278.50;5030892;28;20206;-61
2022/08/11 11:23:52;;;;;;;4.32;2.83;;;27.60;94.80;;;-141.84;29.29;23335.47;5029503;28;20235;-63
2022/08/11 11:26:38;;;;;;;3.25;2.85;;;27.60;94.60;;;-141.84;29.74;23270.38;5030134;28;20229;-63
2022/08/11 11:29:40;;;;;;;3.47;2.63;;;27.70;95.30;;;-141.84;29.94;23290.72;5030532;28;20226;-62
2022/08/11 11:32:27;;;;;;;3.33;3.03;;;27.70;95.40;;;-141.84;29.84;23274.44;5030164;28;20736;-61
2022/08/11 11:35:17;;;;;;;3.78;3.05;;;27.70;95.20;;;-141.84;29.97;23264.28;5030206;28;20237;-61
2022/08/11 11:37:49;;;;;;;3.38;3.10;;;27.60;95.10;;;-141.84;29.75;23211.38;5030496;28;20230;-61
2022/08/11 11:40:34;;;;;;;3.30;3.00;;;27.50;95.00;;;-141.84;29.64;23282.59;5029958;28;20724;-60
2022/08/11 11:43:04;;;;;;;3.30;3.00;;;27.60;94.80;;;-141.84;29.15;23292.75;5030659;28;20221;-62
2022/08/11 11:45:32;;;;;;;4.10;2.80;;;27.60;94.20;;;-141.84;29.36;23215.47;5030017;28;20297;-61
2022/08/11 11:48:02;;;;;;;3.17;2.88;;;27.50;94.20;;;-141.84;29.33;23258.19;5030582;28;20224;-61
2022/08/11 11:50:33;;;;;;;2.60;2.40;;;27.50;94.20;;;-141.84;28.58;23274.44;5029733;28;20242;-60
2022/08/11 11:53:07;;;;;;;3.40;2.50;;;27.60;93.30;;;-141.84;28.55;23307.00;5029765;28;20240;-61
2022/08/11 11:55:38;;;;;;;2.63;2.42;;;27.60;92.80;;;-141.84;28.53;23302.94;5029753;28;20240;-60
2022/08/11 12:03:46;;;;;;;2.83;2.58;;;27.70;93.70;;;-141.84;29.30;23335.47;5029830;28;20187;-61
2022/08/11 12:06:16;;;;;;;3.17;2.88;;;27.80;93.90;;;-141.84;28.90;23329.38;5030252;28;20569;-61
2022/08/11 12:08:49;;;;;;;2.70;2.50;;;27.80;93.60;;;-141.84;29.11;23286.66;5029591;28;20232;-61
2022/08/11 12:14:12;;;;;;;3.67;2.97;;;27.70;93.30;;;-141.84;28.88;23321.22;5029622;28;20253;-60
2022/08/11 12:16:43;;;;;;;2.88;2.67;;;27.80;93.20;;;-141.84;28.80;23264.28;5029651;28;20619;-61
2022/08/11 12:19:14;;;;;;;2.80;2.60;;;27.70;93.00;;;-141.84;28.97;23302.94;5029402;28;20228;-61
2022/08/11 12:27:20;;;;;;;3.22;2.90;;;27.80;93.10;;;-141.84;28.95;23363.94;5029818;28;20187;-61
2022/08/11 12:29:57;;;;;;;4.15;2.90;;;28.00;93.00;;;-141.84;28.74;23343.63;5029809;28;20565;-61
2022/08/11 12:32:29;;;;;;;2.92;2.60;;;27.90;92.90;;;-141.84;29.03;23368.03;5029826;28;20701;-61
2022/08/11 12:34:58;;;;;;;3.05;2.85;;;28.00;93.60;;;-141.84;29.13;23351.75;5032804;28;20313;-61
2022/08/11 12:37:32;;;;;;;3.45;2.90;;;27.90;93.40;;;-141.84;29.07;23384.28;5034014;28;20325;-60
2022/08/11 12:46:17;;;;;;;3.67;2.95;;;28.10;93.30;;;-141.84;29.28;23363.94;5033931;28;20317;-61
2022/08/11 12:52:00;;;;;;;3.85;3.05;;;27.90;93.30;;;-141.84;28.88;23378.19;5033163;28;20618;-61
2022/08/11 12:54:51;;;;;;;3.13;2.78;;;28.00;93.10;;;-141.84;28.94;23382.25;5033093;28;20185;-60
2022/08/11 13:05:57;;;;;;;3.90;3.03;;;28.00;92.80;;;-141.84;28.76;23396.50;5032645;28;20232;-61
2022/08/11 13:08:29;;;;;;;5.75;3.25;;;28.00;92.80;;;-141.84;28.73;23410.75;5032373;28;20230;-61
2022/08/11 13:13:48;;;;;;;4.80;2.83;;;28.10;92.60;;;-141.84;28.99;23445.31;5032593;28;20721;-61
2022/08/11 13:16:28;;;;;;;3.97;3.20;;;28.20;93.00;;;-141.84;28.75;23457.53;5032416;28;20222;-61
2022/08/11 13:18:59;;;;;;;3.95;2.88;;;28.20;92.60;;;-141.84;28.46;23461.59;5032063;28;20595;-61
2022/08/11 13:21:29;;;;;;;3.17;2.88;;;28.30;92.60;;;-141.84;28.80;23471.78;5032442;28;20202;-63
2022/08/11 13:23:58;;;;;;;3.50;3.20;;;28.40;92.70;;;-141.84;28.46;23510.41;5032551;28;20198;-61
2022/08/11 13:26:37;;;;;;;7.18;3.00;;;28.40;92.90;;;-141.84;28.62;23483.97;5031810;28;20312;-61
2022/08/11 13:29:19;;;;;;;4.60;3.00;;;28.40;92.40;;;-141.84;28.61;23534.84;5032172;28;20237;-61
2022/08/11 13:31:50;;;;;;;4.82;2.80;;;28.40;92.40;;;-141.84;28.70;23424.97;5032293;28;20230;-61
2022/08/11 13:34:21;;;;;;;5.25;3.47;;;28.30;92.20;;;-141.84;28.35;23449.38;5032341;28;20225;-61
2022/08/11 13:36:52;;;;;;;6.60;2.83;;;28.30;92.20;;;-141.84;28.83;23469.72;5032170;28;20230;-61
2022/08/11 13:39:23;;;;;;;3.33;3.03;;;28.30;92.50;;;-141.84;28.88;23431.09;5032544;28;20188;-60
2022/08/11 13:41:55;;;;;;;5.03;3.47;;;28.20;92.50;;;-141.84;29.03;23445.31;5032279;28;20243;-62
2022/08/11 13:44:28;;;;;;;3.53;3.22;;;28.30;92.90;;;-141.84;29.04;23429.03;5031849;28;20264;-61
2022/08/11 13:47:02;;;;;;;5.30;3.17;;;28.30;92.60;;;-141.84;28.42;23471.78;5031151;28;20233;-61
2022/08/11 13:49:33;;;;;;;3.28;2.72;;;28.20;91.90;;;-141.84;28.38;23441.25;5032239;28;20232;-61
2022/08/11 13:52:04;;;;;;;5.40;3.30;;;28.30;91.90;;;-141.84;28.37;23508.38;5032862;28;20236;-61
2022/08/11 13:54:37;;;;;;;3.85;3.10;;;28.30;91.90;;;-141.84;28.42;23498.22;5031959;28;20197;-61
2022/08/11 13:57:10;;;;;;;3.85;3.10;;;28.40;92.00;;;-141.84;28.51;23481.94;5032095;28;20182;-61
2022/08/11 14:00:08;;;;;;;6.20;3.15;;;28.40;92.00;;;-141.84;28.73;23402.59;5023713;28;20218;-60
2022/08/11 14:02:58;;;;;;;3.33;3.03;;;28.30;92.10;;;-141.84;28.68;23473.81;5031789;28;20685;-61
2022/08/11 14:05:29;;;;;;;3.45;3.15;;;28.30;92.30;;;-141.84;28.42;23522.63;5031365;28;20279;-61
2022/08/11 14:08:02;;;;;;;4.10;3.42;;;28.40;92.10;;;-141.84;28.57;23516.53;5031555;28;20252;-72
2022/08/11 14:10:33;;;;;;;4.07;3.67;;;28.40;92.20;;;-141.84;28.88;23534.84;5031378;28;20225;-72
2022/08/11 14:16:00;;;;;;;5.25;3.42;;;28.40;92.50;;;-141.84;28.66;23510.41;5031233;28;20225;-72
2022/08/11 14:18:33;;;;;;;3.40;3.10;;;28.40;92.20;;;-141.84;28.71;23435.16;5030912;28;20760;-71
2022/08/11 14:23:58;;;;;;;3.47;3.17;;;28.20;92.30;;;-141.84;29.23;23376.16;5031740;28;20210;-72
2022/08/11 14:26:30;;;;;;;4.78;3.10;;;28.20;92.50;;;-141.84;29.16;23368.03;5031276;28;20226;-71
2022/08/11 14:29:02;;;;;;;3.72;3.35;;;28.10;92.50;;;-141.84;29.10;23449.38;5031362;28;20225;-72
2022/08/11 14:31:34;;;;;;;4.60;3.05;;;28.20;92.60;;;-141.84;28.99;23439.22;5032307;28;20221;-72
2022/08/11 14:34:09;;;;;;;4.70;3.45;;;28.20;92.20;;;-141.84;28.89;23447.34;5032368;28;20272;-71
2022/08/11 14:36:40;;;;;;;4.85;3.40;;;28.20;92.50;;;-141.84;28.66;23465.66;5031925;28;20217;-72
2022/08/11 14:39:11;;;;;;;7.53;3.38;;;28.30;92.30;;;-141.84;28.79;23469.72;5031846;28;20277;-72
2022/08/11 14:47:33;;;;;;;3.58;3.10;;;28.30;92.30;;;-141.84;28.73;23457.53;5030992;28;20228;-73
2022/08/11 14:50:05;;;;;;;4.32;3.20;;;28.30;92.00;;;-141.84;29.00;23386.34;5031399;28;20783;-72
2022/08/11 14:52:48;;;;;;;3.45;3.15;;;28.10;92.00;;;-141.84;29.15;23402.59;5032173;28;20233;-71
2022/08/11 14:58:04;;;;;;;3.63;3.05;;;28.20;92.30;;;-141.84;28.97;23376.16;5033899;28;20253;-75
2022/08/11 15:00:34;;;;;;;7.00;3.67;;;28.10;92.30;;;-141.84;29.05;23380.22;5032197;28;20209;-75
2022/08/11 15:03:10;;;;;;;4.43;3.10;;;28.20;92.10;;;-141.84;28.56;23443.28;5031552;28;20575;-71
2022/08/11 15:05:47;;;;;;;6.15;3.03;;;28.20;91.80;;;-141.84;29.00;23488.03;5031321;28;20752;-70